<?xml version='1.0' encoding='UTF-8'?>
<gpx xmlns="http://www.topografix.com/GPX/1/1" creator="www.balnam.be" version="1.1" xmlns:xsi="http://www.w3.org/2001/XMLSchema-instance" xsi:schemaLocation="http://www.topografix.com/GPX/1/1 http://www.topografix.com/GPX/1/1/gpx.xsd">
<trk>
<name>xtltl5</name>
<cmt>v</cmt>
<desc>Tellin Chemin n°5 </desc>
<link href="https://chemins.be/tellin/chemin/5"/><trkseg>
<trkpt lat="50.072084" lon="5.213088"><time>2026-05-02T23:14:57Z</time></trkpt>
<trkpt lat="50.070983" lon="5.212873"><time>2026-05-02T23:24:57Z</time></trkpt>
<trkpt lat="50.069304" lon="5.211516"><time>2026-05-02T23:34:57Z</time></trkpt>
<trkpt lat="50.066968" lon="5.210202"><time>2026-05-02T23:44:57Z</time></trkpt>
<trkpt lat="50.063862" lon="5.208367"><time>2026-05-02T23:54:57Z</time></trkpt>
</trkseg></trk>
<trk>
<name>xtltl5</name>
<cmt>s</cmt>
<desc>Tellin Chemin n°5 </desc>
<link href="https://chemins.be/tellin/chemin/5"/><trkseg>
<trkpt lat="50.063862" lon="5.208367"><time>2026-05-02T23:54:57Z</time></trkpt>
<trkpt lat="50.063447" lon="5.208252"><time>2026-05-03T00:04:57Z</time></trkpt>
<trkpt lat="50.062141" lon="5.207335"><time>2026-05-03T00:14:57Z</time></trkpt>
<trkpt lat="50.059912" lon="5.207296"><time>2026-05-03T00:24:57Z</time></trkpt>
</trkseg></trk>
<trk>
<name>xtltl5</name>
<cmt>q</cmt>
<desc>Tellin Chemin n°5 </desc>
<link href="https://chemins.be/tellin/chemin/5"/><trkseg>
<trkpt lat="50.059912" lon="5.207296"><time>2026-05-03T00:24:57Z</time></trkpt>
<trkpt lat="50.056067" lon="5.206823"><time>2026-05-03T00:34:57Z</time></trkpt>
</trkseg></trk>
<trk>
<name>xtltl5</name>
<cmt>s</cmt>
<desc>Tellin Chemin n°5 </desc>
<link href="https://chemins.be/tellin/chemin/5"/><trkseg>
<trkpt lat="50.056067" lon="5.206823"><time>2026-05-03T00:34:57Z</time></trkpt>
<trkpt lat="50.054751" lon="5.207331"><time>2026-05-03T00:44:57Z</time></trkpt>
</trkseg></trk>
<trk>
<name>xtltl5</name>
<cmt>d</cmt>
<desc>Tellin Chemin n°5 </desc>
<link href="https://chemins.be/tellin/chemin/5"/><trkseg>
<trkpt lat="50.054751" lon="5.207331"><time>2026-05-03T00:44:57Z</time></trkpt>
<trkpt lat="50.053646" lon="5.207144"><time>2026-05-03T00:54:57Z</time></trkpt>
<trkpt lat="50.052727" lon="5.206234"><time>2026-05-03T01:04:57Z</time></trkpt>
<trkpt lat="50.050431" lon="5.202898"><time>2026-05-03T01:14:57Z</time></trkpt>
</trkseg></trk>
<trk>
<name>xtltl5</name>
<cmt>v</cmt>
<desc>Tellin Chemin n°5 </desc>
<link href="https://chemins.be/tellin/chemin/5"/><trkseg>
<trkpt lat="50.050431" lon="5.202898"><time>2026-05-03T01:14:57Z</time></trkpt>
<trkpt lat="50.048391" lon="5.201466"><time>2026-05-03T01:24:57Z</time></trkpt>
<trkpt lat="50.046731" lon="5.201088"><time>2026-05-03T01:34:57Z</time></trkpt>
<trkpt lat="50.045585" lon="5.201599"><time>2026-05-03T01:44:57Z</time></trkpt>
<trkpt lat="50.039924" lon="5.207294"><time>2026-05-03T01:54:57Z</time></trkpt>
<trkpt lat="50.039920" lon="5.207866"><time>2026-05-03T02:04:57Z</time></trkpt>
<trkpt lat="50.038984" lon="5.208059"><time>2026-05-03T02:14:57Z</time></trkpt>
</trkseg></trk>
<trk>
<name>xtltl5</name>
<cmt>d</cmt>
<desc>Tellin Chemin n°5 </desc>
<link href="https://chemins.be/tellin/chemin/5"/><trkseg>
<trkpt lat="50.038984" lon="5.208059"><time>2026-05-03T02:14:57Z</time></trkpt>
<trkpt lat="50.036297" lon="5.210329"><time>2026-05-03T02:24:57Z</time></trkpt>
</trkseg></trk>
<trk>
<name>xtltl5</name>
<cmt>s</cmt>
<desc>Tellin Chemin n°5 </desc>
<link href="https://chemins.be/tellin/chemin/5"/><trkseg>
<trkpt lat="50.036297" lon="5.210329"><time>2026-05-03T02:24:57Z</time></trkpt>
<trkpt lat="50.035202" lon="5.211245"><time>2026-05-03T02:34:57Z</time></trkpt>
<trkpt lat="50.033402" lon="5.212693"><time>2026-05-03T02:44:57Z</time></trkpt>
</trkseg></trk>
<trk>
<name>xtltl5</name>
<cmt>d</cmt>
<desc>Tellin Chemin n°5 </desc>
<link href="https://chemins.be/tellin/chemin/5"/><trkseg>
<trkpt lat="50.033402" lon="5.212693"><time>2026-05-03T02:44:57Z</time></trkpt>
<trkpt lat="50.032412" lon="5.214058"><time>2026-05-03T02:54:57Z</time></trkpt>
</trkseg>
</trk>
</gpx>